Time;durP1;ratioP1;P1;durP2;ratioP2;P2;SDS_P1;SDS_P2;PMS_P1;PMS_P2;Temp;Humidity;BMP_temperature;BMP_pressure;BME280_temperature;BME280_humidity;BME280_pressure;Samples;Min_cycle;Max_cycle;Signal;HPM_P1;HPM_P2
2021/07/07 00:01:39;;;;;;;3.40;1.30;;;16.60;99.90;;;;;;4995848;28;20483;-86
2021/07/07 00:04:05;;;;;;;6.50;1.42;;;16.60;99.90;;;;;;4978407;28;20030;-86
2021/07/07 00:06:30;;;;;;;3.88;1.40;;;16.60;99.90;;;;;;4977752;28;20510;-86
2021/07/07 00:08:56;;;;;;;6.68;1.40;;;16.70;99.90;;;;;;4978592;28;20027;-86
2021/07/07 00:11:22;;;;;;;2.83;1.27;;;16.70;99.90;;;;;;4978143;28;20034;-86
2021/07/07 00:13:47;;;;;;;3.72;1.20;;;16.70;99.90;;;;;;4978275;28;20042;-86
2021/07/07 00:16:13;;;;;;;5.65;1.10;;;16.80;99.90;;;;;;4995644;28;20022;-86
2021/07/07 00:18:39;;;;;;;4.30;1.15;;;16.70;99.90;;;;;;4978150;28;20390;-85
2021/07/07 00:21:05;;;;;;;8.43;1.40;;;16.80;99.90;;;;;;4995518;28;20024;-86
2021/07/07 00:23:31;;;;;;;2.65;1.25;;;16.70;99.90;;;;;;4995747;28;20482;-86
2021/07/07 00:25:57;;;;;;;2.65;1.23;;;16.60;99.90;;;;;;4995362;28;20101;-86
2021/07/07 00:28:24;;;;;;;5.80;1.55;;;16.80;99.90;;;;;;4978167;28;20033;-86
2021/07/07 00:30:51;;;;;;;9.88;1.52;;;16.90;99.90;;;;;;4995213;28;20042;-86
2021/07/07 00:33:18;;;;;;;6.93;1.50;;;16.90;99.90;;;;;;4977845;28;20023;-86
2021/07/07 00:35:45;;;;;;;4.00;1.55;;;16.80;99.90;;;;;;4977748;28;20030;-86
2021/07/07 00:38:12;;;;;;;3.58;1.30;;;16.70;99.90;;;;;;4977727;28;20486;-86
2021/07/07 00:40:39;;;;;;;8.10;1.40;;;16.70;99.90;;;;;;4977711;28;20022;-86
2021/07/07 00:43:05;;;;;;;2.42;1.38;;;16.60;99.90;;;;;;4977605;28;20490;-86
2021/07/07 00:45:30;;;;;;;3.03;1.40;;;16.60;99.90;;;;;;4977616;28;20029;-86
2021/07/07 00:47:56;;;;;;;2.67;1.65;;;16.60;99.90;;;;;;4977522;28;20435;-86
2021/07/07 00:50:23;;;;;;;9.75;2.35;;;16.60;99.90;;;;;;4995165;28;20034;-86
2021/07/07 00:52:48;;;;;;;5.55;1.70;;;16.50;99.90;;;;;;4994923;28;20019;-87
2021/07/07 00:55:16;;;;;;;6.15;1.80;;;16.50;99.90;;;;;;4994916;28;20490;-87
2021/07/07 00:57:44;;;;;;;9.15;1.85;;;16.60;99.90;;;;;;4994815;28;20022;-87
2021/07/07 01:00:15;;;;;;;4.03;1.58;;;16.60;99.90;;;;;;4977616;28;20042;-87
2021/07/07 01:02:42;;;;;;;4.65;1.40;;;16.70;99.90;;;;;;4977190;28;20042;-87
2021/07/07 01:05:10;;;;;;;3.67;1.45;;;16.70;99.90;;;;;;4977624;28;20027;-87
2021/07/07 01:07:36;;;;;;;5.07;1.90;;;16.80;99.90;;;;;;4977160;28;20027;-87
2021/07/07 01:10:07;;;;;;;6.50;1.60;;;16.70;99.90;;;;;;4977030;28;20375;-86
2021/07/07 01:12:33;;;;;;;2.75;1.40;;;16.70;99.90;;;;;;4977259;28;20499;-87
2021/07/07 01:15:10;;;;;;;4.78;1.65;;;16.80;99.90;;;;;;4994499;28;20105;-87
2021/07/07 01:17:36;;;;;;;2.67;1.52;;;16.70;99.90;;;;;;4976295;28;20026;-87
2021/07/07 01:20:16;;;;;;;5.10;1.40;;;16.60;99.90;;;;;;4977074;28;20490;-87
2021/07/07 01:22:43;;;;;;;2.50;1.50;;;16.60;99.90;;;;;;4977041;28;20413;-87
2021/07/07 01:25:11;;;;;;;3.90;1.60;;;16.70;99.90;;;;;;4994620;28;20544;-87
2021/07/07 01:27:40;;;;;;;5.47;1.55;;;16.70;99.90;;;;;;4976807;28;20050;-87
2021/07/07 01:30:07;;;;;;;2.08;1.35;;;17.00;99.90;;;;;;4976794;28;20398;-87
2021/07/07 01:32:33;;;;;;;2.72;1.50;;;17.00;99.90;;;;;;4994135;28;20023;-87
2021/07/07 01:34:59;;;;;;;5.72;1.50;;;16.90;99.90;;;;;;4976789;28;20085;-87
2021/07/07 01:37:27;;;;;;;3.83;1.50;;;16.80;99.90;;;;;;4976961;28;20117;-87
2021/07/07 01:39:53;;;;;;;5.80;1.50;;;16.90;99.90;;;;;;4976682;28;20049;-87
2021/07/07 01:42:18;;;;;;;8.05;1.40;;;17.00;99.90;;;;;;4994084;28;20092;-86
2021/07/07 01:44:45;;;;;;;6.43;1.30;;;17.00;99.90;;;;;;4976565;28;20027;-87
2021/07/07 01:47:10;;;;;;;4.00;1.50;;;16.90;99.90;;;;;;4977168;28;20500;-87
2021/07/07 01:49:36;;;;;;;5.30;1.30;;;16.80;99.90;;;;;;4976668;28;20022;-87
2021/07/07 01:52:02;;;;;;;5.07;1.58;;;16.80;99.90;;;;;;4993979;28;20022;-87
2021/07/07 01:54:28;;;;;;;3.03;1.13;;;16.80;99.90;;;;;;4994085;28;20022;-87
2021/07/07 01:56:54;;;;;;;3.05;1.13;;;16.80;99.90;;;;;;4994270;28;20026;-87
2021/07/07 01:59:19;;;;;;;5.75;1.27;;;16.90;99.90;;;;;;4993915;28;20061;-87
2021/07/07 02:01:45;;;;;;;3.85;1.40;;;17.00;99.90;;;;;;4995109;28;20042;-88
2021/07/07 02:04:11;;;;;;;4.50;1.50;;;17.00;99.90;;;;;;4978624;28;20536;-88
2021/07/07 02:06:36;;;;;;;3.75;1.27;;;17.00;99.90;;;;;;4977371;28;20018;-88
2021/07/07 02:09:05;;;;;;;4.97;1.02;;;16.90;99.90;;;;;;4976709;28;20030;-89
2021/07/07 02:11:32;;;;;;;6.03;1.35;;;16.80;99.90;;;;;;4976896;28;20030;-88
2021/07/07 02:13:57;;;;;;;5.28;1.50;;;16.70;99.90;;;;;;4976491;28;20116;-89
2021/07/07 02:16:23;;;;;;;4.05;1.50;;;16.60;99.90;;;;;;4976660;28;20065;-89
2021/07/07 02:18:49;;;;;;;5.97;1.27;;;16.60;99.90;;;;;;4994003;28;20022;-89
2021/07/07 02:21:15;;;;;;;2.95;1.23;;;16.60;99.90;;;;;;4976547;28;20121;-89
2021/07/07 02:23:40;;;;;;;2.60;1.20;;;16.60;99.90;;;;;;4976517;28;20084;-89
2021/07/07 02:26:06;;;;;;;3.40;1.33;;;16.70;99.90;;;;;;4976460;28;20034;-89
2021/07/07 02:28:32;;;;;;;7.35;1.48;;;16.80;99.90;;;;;;4993879;28;20486;-89
2021/07/07 02:30:57;;;;;;;8.95;1.40;;;16.90;99.90;;;;;;4997676;28;20026;-88
2021/07/07 02:33:25;;;;;;;4.65;1.42;;;16.80;99.90;;;;;;4980215;28;20029;-89
2021/07/07 02:35:51;;;;;;;2.25;1.20;;;16.70;99.90;;;;;;4997640;28;20336;-88
2021/07/07 02:38:20;;;;;;;3.13;1.20;;;16.60;99.90;;;;;;4979979;28;20019;-88
2021/07/07 02:40:49;;;;;;;4.65;1.38;;;16.60;99.90;;;;;;4979944;28;20088;-88
2021/07/07 02:43:15;;;;;;;4.72;1.08;;;16.70;99.90;;;;;;4979849;28;20113;-88
2021/07/07 02:45:42;;;;;;;3.50;1.10;;;16.80;99.90;;;;;;4979954;28;20112;-88
2021/07/07 02:48:09;;;;;;;3.85;1.10;;;16.80;99.90;;;;;;4997553;28;20118;-88
2021/07/07 02:50:37;;;;;;;3.28;1.23;;;16.70;99.90;;;;;;4979694;28;20490;-88
2021/07/07 02:53:03;;;;;;;3.17;1.42;;;16.70;99.90;;;;;;5004622;28;20046;-90
2021/07/07 02:55:29;;;;;;;7.68;1.20;;;16.60;99.90;;;;;;4996194;28;20026;-90
2021/07/07 03:00:29;;;;;;;6.00;1.80;;;16.40;99.90;;;;;;5013674;28;20026;-90
2021/07/07 03:03:00;;;;;;;8.52;1.65;;;16.30;99.90;;;;;;4969062;28;20038;-90
2021/07/07 03:05:29;;;;;;;3.20;1.23;;;16.20;99.90;;;;;;4968351;28;20058;-90
2021/07/07 03:07:54;;;;;;;4.03;1.05;;;16.30;99.90;;;;;;4982327;28;20394;-90
2021/07/07 03:10:20;;;;;;;3.00;1.30;;;16.40;99.90;;;;;;4982032;28;20030;-90
2021/07/07 03:12:46;;;;;;;3.47;1.30;;;16.50;99.90;;;;;;4961263;28;20033;-89
2021/07/07 03:15:12;;;;;;;6.07;1.27;;;16.60;99.90;;;;;;4960501;28;20034;-90
2021/07/07 03:17:38;;;;;;;3.05;1.30;;;16.60;99.90;;;;;;4977733;28;20483;-89
2021/07/07 03:20:05;;;;;;;3.83;1.00;;;16.70;99.90;;;;;;4977705;28;20029;-89
2021/07/07 03:22:31;;;;;;;3.28;1.08;;;16.70;99.90;;;;;;4977459;28;20027;-89
2021/07/07 03:24:56;;;;;;;5.18;1.30;;;16.70;99.90;;;;;;4960120;28;20458;-89
2021/07/07 03:27:22;;;;;;;3.55;1.40;;;16.70;99.90;;;;;;4959894;28;20093;-89
2021/07/07 03:29:48;;;;;;;6.97;1.42;;;16.60;99.90;;;;;;4959858;28;20031;-89
2021/07/07 03:32:13;;;;;;;3.35;1.27;;;16.60;99.90;;;;;;4959880;28;20030;-89
2021/07/07 03:34:39;;;;;;;5.00;1.20;;;16.50;99.90;;;;;;4977286;28;20027;-89
2021/07/07 03:37:05;;;;;;;7.80;1.25;;;16.50;99.90;;;;;;4977035;28;20494;-88
2021/07/07 03:39:30;;;;;;;5.85;1.20;;;16.50;99.90;;;;;;4977024;28;20363;-89
2021/07/07 03:41:56;;;;;;;3.40;1.40;;;16.40;99.90;;;;;;4975900;28;20022;-89
2021/07/07 03:44:22;;;;;;;3.85;1.20;;;16.30;99.90;;;;;;4959911;28;20033;-89
2021/07/07 03:46:47;;;;;;;4.82;1.30;;;16.30;99.90;;;;;;4959543;28;20475;-88
2021/07/07 03:49:13;;;;;;;2.30;1.40;;;16.20;99.90;;;;;;4959755;28;20415;-88
2021/07/07 03:51:38;;;;;;;3.10;1.17;;;16.20;99.90;;;;;;4959371;28;20077;-89
2021/07/07 03:54:04;;;;;;;7.07;1.30;;;16.30;99.90;;;;;;4959447;28;20026;-88
2021/07/07 03:56:30;;;;;;;2.75;1.30;;;16.30;99.90;;;;;;4959633;28;20049;-89
2021/07/07 03:58:55;;;;;;;4.53;1.70;;;16.20;99.90;;;;;;4976613;28;20467;-89
2021/07/07 04:01:21;;;;;;;1.83;1.13;;;16.20;99.90;;;;;;4966445;28;20418;-88
2021/07/07 04:03:47;;;;;;;4.40;1.20;;;16.20;99.90;;;;;;4978484;28;20042;-88
2021/07/07 04:06:12;;;;;;;6.47;1.10;;;16.40;99.90;;;;;;4978540;28;20048;-87
2021/07/07 04:08:39;;;;;;;3.28;1.40;;;16.60;99.90;;;;;;4978450;28;20030;-89
2021/07/07 04:11:05;;;;;;;2.75;1.48;;;16.50;99.90;;;;;;4978267;28;20397;-87
2021/07/07 04:13:31;;;;;;;2.33;1.00;;;16.30;99.90;;;;;;4978238;28;20022;-88
2021/07/07 04:15:57;;;;;;;4.18;1.02;;;16.30;99.90;;;;;;4978452;28;20026;-87
2021/07/07 04:18:23;;;;;;;4.47;1.52;;;16.30;99.90;;;;;;5001206;28;20027;-88
2021/07/07 04:20:49;;;;;;;5.30;1.27;;;16.30;99.90;;;;;;5000811;28;20034;-87
2021/07/07 04:23:15;;;;;;;2.20;1.10;;;16.50;99.90;;;;;;4995859;28;20030;-87
2021/07/07 04:25:40;;;;;;;3.85;1.02;;;16.60;99.90;;;;;;4978338;28;20030;-88
2021/07/07 04:28:07;;;;;;;7.35;1.20;;;16.70;99.90;;;;;;4995597;28;20034;-88
2021/07/07 04:30:33;;;;;;;6.00;1.25;;;16.70;99.90;;;;;;4977968;28;20041;-87
2021/07/07 04:32:59;;;;;;;6.35;1.60;;;16.80;99.90;;;;;;4977903;28;20022;-87
2021/07/07 04:35:25;;;;;;;3.65;1.08;;;16.80;99.90;;;;;;4977921;28;20154;-87
2021/07/07 04:37:51;;;;;;;2.88;1.20;;;16.80;99.90;;;;;;4977842;28;20046;-87
2021/07/07 04:40:19;;;;;;;3.70;1.30;;;16.70;99.90;;;;;;4977800;28;20037;-88
2021/07/07 04:42:45;;;;;;;10.48;1.48;;;16.60;99.90;;;;;;4977720;28;20027;-87
2021/07/07 04:45:11;;;;;;;3.75;1.30;;;16.50;99.90;;;;;;4995103;28;20031;-88
2021/07/07 04:47:38;;;;;;;6.22;1.05;;;16.30;99.90;;;;;;4977715;28;20029;-87
2021/07/07 04:50:07;;;;;;;6.50;1.42;;;16.40;99.90;;;;;;4977491;28;20117;-87
2021/07/07 04:52:33;;;;;;;6.45;1.50;;;16.50;99.90;;;;;;4994782;28;20026;-88
2021/07/07 04:54:58;;;;;;;2.63;1.45;;;16.60;99.90;;;;;;4977419;28;20117;-87
2021/07/07 04:57:24;;;;;;;5.25;1.40;;;16.60;99.90;;;;;;4995122;28;20022;-88
2021/07/07 04:59:50;;;;;;;4.82;1.05;;;16.60;99.90;;;;;;4994780;28;20034;-87
2021/07/07 05:02:15;;;;;;;3.70;1.10;;;16.60;99.90;;;;;;4977234;28;20046;-88
2021/07/07 05:04:41;;;;;;;5.07;1.20;;;16.70;99.90;;;;;;4977415;28;20040;-88
2021/07/07 05:07:07;;;;;;;4.72;1.48;;;16.80;99.90;;;;;;4977251;28;20054;-87
2021/07/07 05:09:32;;;;;;;3.63;1.02;;;16.80;99.90;;;;;;4977143;28;20041;-87
2021/07/07 05:11:58;;;;;;;2.92;1.20;;;16.80;99.90;;;;;;4994647;28;20442;-87
2021/07/07 05:14:24;;;;;;;3.92;1.52;;;16.60;99.90;;;;;;4994594;28;20093;-87
2021/07/07 05:16:50;;;;;;;5.03;1.15;;;16.50;99.90;;;;;;4977937;28;20026;-87
2021/07/07 05:19:17;;;;;;;3.63;1.30;;;16.50;99.90;;;;;;4994523;28;20031;-87
2021/07/07 05:21:42;;;;;;;3.08;1.08;;;16.60;99.90;;;;;;4977064;28;20091;-87
2021/07/07 05:24:08;;;;;;;8.85;1.27;;;16.50;99.90;;;;;;4976979;28;20060;-87
2021/07/07 05:26:34;;;;;;;1.27;1.05;;;16.60;99.90;;;;;;4976992;28;20504;-87
2021/07/07 05:29:00;;;;;;;3.17;1.00;;;16.60;99.90;;;;;;4976848;28;20141;-86
2021/07/07 05:31:26;;;;;;;6.78;1.38;;;16.50;99.90;;;;;;4976790;28;20050;-87
2021/07/07 05:33:53;;;;;;;2.08;1.08;;;16.50;99.90;;;;;;4976813;28;20030;-87
2021/07/07 05:36:19;;;;;;;2.20;1.13;;;16.60;99.90;;;;;;4976816;28;20497;-86
2021/07/07 05:38:45;;;;;;;3.78;1.20;;;16.70;99.90;;;;;;4994118;28;20022;-86
2021/07/07 05:41:10;;;;;;;4.82;1.20;;;16.70;99.90;;;;;;4976890;28;20113;-86
2021/07/07 05:43:36;;;;;;;3.85;1.65;;;16.70;99.90;;;;;;4976649;28;20146;-87
2021/07/07 05:46:02;;;;;;;8.75;1.38;;;16.60;99.90;;;;;;4976583;28;20030;-87
2021/07/07 05:48:28;;;;;;;6.40;1.20;;;16.60;99.90;;;;;;4994023;28;20026;-86
2021/07/07 05:50:55;;;;;;;2.55;1.20;;;16.70;99.90;;;;;;4976473;28;20395;-86
2021/07/07 05:53:23;;;;;;;3.22;1.40;;;16.80;99.90;;;;;;4994000;28;20038;-87
2021/07/07 05:55:48;;;;;;;10.10;1.55;;;16.80;99.90;;;;;;4976486;28;20029;-87
2021/07/07 05:58:14;;;;;;;3.50;1.27;;;16.70;99.90;;;;;;4976359;28;20118;-86
2021/07/07 06:00:40;;;;;;;6.70;1.42;;;16.80;99.90;;;;;;4976189;28;20034;-87
2021/07/07 06:03:05;;;;;;;7.25;1.42;;;16.90;99.90;;;;;;4993764;28;20113;-86
2021/07/07 06:05:32;;;;;;;6.28;1.30;;;16.80;99.90;;;;;;4976073;28;20122;-86
2021/07/07 06:07:59;;;;;;;5.60;1.33;;;16.70;99.90;;;;;;4993923;28;20031;-86
2021/07/07 06:10:25;;;;;;;5.05;1.25;;;16.80;99.90;;;;;;4976285;28;20030;-86
2021/07/07 06:12:54;;;;;;;5.55;1.42;;;16.80;99.90;;;;;;4993762;28;20487;-86
2021/07/07 06:15:21;;;;;;;8.00;1.67;;;16.80;99.90;;;;;;4993796;28;20025;-85
2021/07/07 06:17:47;;;;;;;3.00;1.30;;;16.80;99.90;;;;;;4976318;28;20486;-85
2021/07/07 06:20:15;;;;;;;6.72;1.67;;;16.70;99.90;;;;;;4993653;28;20030;-86
2021/07/07 06:22:42;;;;;;;3.63;1.65;;;16.60;99.90;;;;;;4976241;28;20509;-85
2021/07/07 06:25:10;;;;;;;5.80;1.52;;;16.60;99.90;;;;;;4976130;28;20037;-85
2021/07/07 06:27:37;;;;;;;4.20;1.48;;;16.60;99.90;;;;;;4976181;28;20509;-85
2021/07/07 06:30:10;;;;;;;4.63;1.27;;;16.60;99.90;;;;;;4993573;28;20058;-85
2021/07/07 06:32:37;;;;;;;2.55;1.40;;;16.70;99.90;;;;;;4994014;28;20018;-85
2021/07/07 06:35:03;;;;;;;4.18;1.50;;;16.60;99.90;;;;;;4976777;28;20022;-85
2021/07/07 06:37:29;;;;;;;3.47;1.35;;;16.60;99.90;;;;;;4993656;28;20442;-84
2021/07/07 06:39:55;;;;;;;4.00;1.33;;;16.60;99.90;;;;;;4993436;28;20029;-85
2021/07/07 06:42:21;;;;;;;4.20;1.38;;;16.50;99.90;;;;;;4975894;28;20022;-83
2021/07/07 06:44:47;;;;;;;7.93;1.48;;;16.60;99.90;;;;;;4993341;28;20105;-83
2021/07/07 06:47:13;;;;;;;2.10;1.10;;;16.60;99.90;;;;;;4993986;28;20528;-83
2021/07/07 06:49:39;;;;;;;7.20;1.63;;;16.60;99.90;;;;;;4975911;28;20077;-83
2021/07/07 06:52:05;;;;;;;6.75;1.42;;;16.70;99.90;;;;;;4975984;28;20081;-83
2021/07/07 06:54:31;;;;;;;6.75;1.67;;;16.60;99.90;;;;;;4975932;28;20022;-83
2021/07/07 06:56:56;;;;;;;5.45;1.50;;;16.60;99.90;;;;;;4976040;28;20023;-83
2021/07/07 06:59:22;;;;;;;5.55;1.30;;;16.70;99.90;;;;;;4993593;28;20031;-83
2021/07/07 07:01:48;;;;;;;2.53;1.30;;;16.80;99.90;;;;;;4993232;28;20410;-83
2021/07/07 07:04:13;;;;;;;6.72;1.02;;;17.00;99.90;;;;;;4975918;28;20497;-83
2021/07/07 07:06:39;;;;;;;2.95;1.50;;;17.00;99.90;;;;;;4975911;28;20030;-85
2021/07/07 07:09:05;;;;;;;2.55;1.30;;;17.00;99.90;;;;;;4975811;28;20077;-83
2021/07/07 07:11:31;;;;;;;2.78;1.10;;;17.10;99.90;;;;;;4993221;28;20081;-82
2021/07/07 07:13:56;;;;;;;7.18;1.23;;;17.10;99.90;;;;;;4993208;28;20030;-81
2021/07/07 07:16:22;;;;;;;3.45;1.10;;;17.10;99.90;;;;;;4977035;28;20049;-82
2021/07/07 07:18:48;;;;;;;2.97;1.10;;;17.10;99.90;;;;;;4996731;28;20019;-82
2021/07/07 07:21:15;;;;;;;4.07;1.30;;;17.10;99.90;;;;;;4996647;28;20049;-82
2021/07/07 07:23:41;;;;;;;5.18;1.27;;;17.00;99.90;;;;;;4979074;28;20486;-82
2021/07/07 07:26:07;;;;;;;6.22;1.58;;;17.00;99.90;;;;;;4996540;28;20041;-82
2021/07/07 07:28:32;;;;;;;3.50;1.67;;;17.00;99.90;;;;;;4996521;28;20026;-82
2021/07/07 07:30:59;;;;;;;3.65;1.38;;;16.90;99.90;;;;;;4996702;28;20030;-82
2021/07/07 07:33:25;;;;;;;4.88;1.60;;;16.80;99.90;;;;;;4996698;28;20390;-82
2021/07/07 07:35:52;;;;;;;6.03;1.75;;;16.70;99.90;;;;;;4978900;28;20367;-82
2021/07/07 07:38:28;;;;;;;5.10;1.65;;;16.70;99.90;;;;;;4996343;28;20368;-82
2021/07/07 07:40:54;;;;;;;2.05;1.40;;;16.70;99.90;;;;;;4978937;28;20034;-82
2021/07/07 07:43:21;;;;;;;4.85;1.45;;;16.90;99.90;;;;;;4996232;28;20026;-82
2021/07/07 07:45:52;;;;;;;5.97;1.40;;;16.80;99.90;;;;;;4978729;28;20031;-80
2021/07/07 07:48:18;;;;;;;5.53;1.75;;;16.70;99.90;;;;;;4978694;28;20022;-80
2021/07/07 07:50:44;;;;;;;6.28;1.95;;;16.80;99.90;;;;;;4996054;28;20033;-82
2021/07/07 07:53:10;;;;;;;5.97;1.45;;;17.00;99.90;;;;;;4996069;28;20030;-80
2021/07/07 07:55:36;;;;;;;5.20;1.60;;;17.30;99.90;;;;;;4978540;28;20026;-80
2021/07/07 07:58:03;;;;;;;3.60;1.25;;;17.50;99.90;;;;;;4978549;28;20085;-80
2021/07/07 08:00:28;;;;;;;3.25;1.60;;;17.50;99.90;;;;;;4978141;28;20085;-82
2021/07/07 08:02:57;;;;;;;5.05;1.40;;;17.70;99.90;;;;;;4996391;28;20038;-82
2021/07/07 08:05:23;;;;;;;4.35;1.77;;;17.80;99.90;;;;;;4978295;28;20026;-81
2021/07/07 08:07:50;;;;;;;6.82;1.48;;;17.50;99.90;;;;;;4978327;28;20034;-82
2021/07/07 08:10:19;;;;;;;5.97;1.83;;;17.50;99.90;;;;;;4995701;28;20034;-81
2021/07/07 08:12:45;;;;;;;5.45;1.55;;;17.60;99.90;;;;;;4978150;28;20088;-81
2021/07/07 08:15:12;;;;;;;4.80;1.38;;;17.70;99.90;;;;;;4978174;28;20118;-81
2021/07/07 08:17:38;;;;;;;6.68;1.10;;;17.70;99.90;;;;;;4995596;28;20054;-81
2021/07/07 08:20:06;;;;;;;4.30;1.27;;;17.60;99.90;;;;;;4978091;28;20034;-80
2021/07/07 08:22:32;;;;;;;2.80;1.10;;;17.70;99.90;;;;;;4977856;28;20069;-80
2021/07/07 08:24:57;;;;;;;4.72;1.00;;;17.50;99.90;;;;;;4977983;28;20053;-80
2021/07/07 08:27:23;;;;;;;2.67;1.10;;;17.30;99.90;;;;;;4977438;28;20030;-81
2021/07/07 08:29:49;;;;;;;5.35;1.23;;;17.20;99.90;;;;;;4995246;28;20391;-81
2021/07/07 08:32:15;;;;;;;5.53;1.65;;;17.40;99.90;;;;;;4977748;28;20074;-80
2021/07/07 08:34:41;;;;;;;4.90;1.17;;;17.30;99.90;;;;;;4995252;28;20034;-80
2021/07/07 08:37:06;;;;;;;5.97;1.25;;;17.30;99.90;;;;;;4995500;28;20026;-80
2021/07/07 08:39:32;;;;;;;3.90;1.20;;;17.30;99.90;;;;;;4977750;28;20029;-81
2021/07/07 08:41:58;;;;;;;2.70;0.95;;;17.30;99.90;;;;;;4995428;28;20034;-80
2021/07/07 08:44:25;;;;;;;2.90;1.08;;;17.40;99.90;;;;;;4995155;28;20510;-80
2021/07/07 08:46:52;;;;;;;5.88;1.20;;;17.30;99.90;;;;;;4995077;28;20489;-80
2021/07/07 08:49:19;;;;;;;2.25;0.82;;;17.30;99.90;;;;;;4977525;28;20022;-81
2021/07/07 08:51:44;;;;;;;5.35;1.27;;;17.30;99.90;;;;;;4995193;28;20023;-81
2021/07/07 08:54:11;;;;;;;3.95;1.00;;;17.40;99.90;;;;;;4977515;28;20029;-81
2021/07/07 08:56:40;;;;;;;6.43;1.00;;;17.60;99.90;;;;;;4977470;28;20022;-81
2021/07/07 08:59:07;;;;;;;4.72;1.00;;;17.90;99.90;;;;;;4977355;28;20465;-81
2021/07/07 09:02:09;;;;;;;3.00;1.20;;;18.20;99.90;;;;;;4977079;28;20078;-81
2021/07/07 09:04:41;;;;;;;4.35;1.27;;;18.20;99.90;;;;;;4977334;28;20030;-80
2021/07/07 09:07:08;;;;;;;3.60;1.20;;;18.00;99.90;;;;;;4995027;28;20053;-81
2021/07/07 09:09:48;;;;;;;4.07;1.10;;;17.90;99.90;;;;;;4994393;28;20023;-80
2021/07/07 09:12:26;;;;;;;4.93;1.00;;;17.70;99.90;;;;;;4977349;28;20389;-81
2021/07/07 09:15:05;;;;;;;5.30;0.93;;;17.70;99.90;;;;;;4977030;28;20022;-80
2021/07/07 09:17:57;;;;;;;3.75;1.08;;;17.90;99.90;;;;;;4977172;28;20371;-85
2021/07/07 09:20:39;;;;;;;5.65;1.10;;;18.00;99.90;;;;;;4973338;28;20034;-85
2021/07/07 09:23:21;;;;;;;6.00;1.15;;;18.20;99.90;;;;;;4977011;28;20065;-84
2021/07/07 09:26:03;;;;;;;8.13;1.08;;;18.50;99.90;;;;;;4977011;28;20505;-86
2021/07/07 09:28:37;;;;;;;4.03;1.20;;;18.40;99.90;;;;;;4994391;28;20023;-84
2021/07/07 09:31:07;;;;;;;3.87;0.97;;;18.60;99.90;;;;;;4976888;28;20069;-86
2021/07/07 09:33:43;;;;;;;2.78;1.10;;;18.60;99.90;;;;;;4976882;28;20026;-86
2021/07/07 09:36:23;;;;;;;6.22;0.88;;;18.60;99.90;;;;;;4994460;28;20022;-85
2021/07/07 09:38:50;;;;;;;5.78;0.93;;;18.60;99.90;;;;;;4976047;28;20054;-85
2021/07/07 09:41:17;;;;;;;3.10;1.00;;;18.50;99.90;;;;;;4994165;28;20034;-84
2021/07/07 09:43:51;;;;;;;2.28;0.85;;;18.50;99.90;;;;;;4994144;28;20367;-84
2021/07/07 09:46:18;;;;;;;4.20;0.98;;;18.70;99.90;;;;;;4994131;28;20080;-84
2021/07/07 09:48:49;;;;;;;3.97;0.88;;;18.70;99.90;;;;;;4976651;28;20061;-84
2021/07/07 09:51:15;;;;;;;3.05;0.85;;;18.80;99.90;;;;;;4976411;28;20031;-84
2021/07/07 09:53:41;;;;;;;2.08;0.70;;;18.90;99.90;;;;;;4993980;28;20026;-84
2021/07/07 09:56:07;;;;;;;2.97;0.73;;;18.80;99.90;;;;;;4993983;28;20363;-84
2021/07/07 09:58:33;;;;;;;4.03;1.15;;;18.70;99.90;;;;;;4976482;28;20054;-84
2021/07/07 10:00:58;;;;;;;2.45;0.80;;;18.60;99.90;;;;;;4976233;28;20042;-84
2021/07/07 10:03:24;;;;;;;3.95;1.00;;;18.70;99.90;;;;;;4976774;28;20363;-84
2021/07/07 10:05:51;;;;;;;3.20;0.95;;;18.80;99.90;;;;;;4976742;28;20026;-84
2021/07/07 10:08:19;;;;;;;5.63;1.33;;;18.80;99.90;;;;;;4976430;28;20121;-84
2021/07/07 10:10:46;;;;;;;5.10;1.00;;;18.90;99.90;;;;;;4976225;28;20022;-84
2021/07/07 10:13:12;;;;;;;2.35;0.80;;;19.00;99.90;;;;;;4976664;28;20023;-85
2021/07/07 10:15:38;;;;;;;3.55;1.40;;;19.10;99.90;;;;;;4976296;28;20375;-84
2021/07/07 10:18:06;;;;;;;2.88;0.93;;;19.20;99.90;;;;;;4976322;28;20106;-84
2021/07/07 10:20:32;;;;;;;1.80;0.85;;;19.10;99.90;;;;;;4976369;28;20506;-84
2021/07/07 10:23:00;;;;;;;3.22;0.82;;;19.10;99.90;;;;;;4976674;28;20026;-84
2021/07/07 10:25:28;;;;;;;3.95;1.00;;;19.20;99.90;;;;;;4976238;28;20030;-84
2021/07/07 10:27:57;;;;;;;3.92;1.00;;;19.40;99.90;;;;;;4993673;28;20026;-84
2021/07/07 10:31:01;;;;;;;2.45;0.90;;;19.70;99.90;;;;;;4976540;28;20034;-84
2021/07/07 10:33:36;;;;;;;3.63;1.00;;;19.90;99.90;;;;;;4976277;28;20541;-84
2021/07/07 10:36:34;;;;;;;3.33;1.00;;;19.90;99.90;;;;;;4976189;28;20022;-84
2021/07/07 10:39:04;;;;;;;3.17;1.00;;;19.90;99.90;;;;;;4934358;28;20093;-85
2021/07/07 10:41:49;;;;;;;2.25;0.65;;;19.70;99.90;;;;;;4976311;28;20054;-85
2021/07/07 10:44:24;;;;;;;3.10;0.82;;;19.50;99.90;;;;;;4976223;28;20033;-85
2021/07/07 10:46:57;;;;;;;2.92;0.77;;;19.50;99.90;;;;;;4993563;28;20026;-85
2021/07/07 10:49:28;;;;;;;4.38;0.80;;;19.60;99.90;;;;;;4993830;28;20532;-84
2021/07/07 10:51:59;;;;;;;2.97;0.80;;;19.60;99.90;;;;;;4979658;28;20516;-85
2021/07/07 10:54:34;;;;;;;3.50;0.90;;;20.10;99.90;;;;;;4979659;28;20026;-85
2021/07/07 10:57:02;;;;;;;2.55;0.88;;;20.40;99.90;;;;;;4979666;28;20065;-86
2021/07/07 10:59:32;;;;;;;3.45;0.80;;;20.30;99.90;;;;;;4979538;28;20026;-85
2021/07/07 11:02:08;;;;;;;3.30;1.08;;;20.60;99.90;;;;;;4979477;28;20050;-85
2021/07/07 11:04:41;;;;;;;4.65;1.10;;;20.80;99.90;;;;;;4979649;28;20544;-85
2021/07/07 11:07:25;;;;;;;4.95;1.00;;;20.80;99.90;;;;;;4996961;28;20029;-85
2021/07/07 11:09:55;;;;;;;3.83;0.85;;;20.90;99.90;;;;;;4979292;28;20549;-82
2021/07/07 11:12:41;;;;;;;3.30;0.70;;;21.00;99.90;;;;;;4996834;28;20152;-85
2021/07/07 11:15:18;;;;;;;3.10;0.90;;;21.20;99.90;;;;;;4941113;28;20030;-85
2021/07/07 11:17:46;;;;;;;3.22;0.98;;;21.30;99.90;;;;;;4979611;28;20022;-85
2021/07/07 11:20:13;;;;;;;4.47;0.95;;;21.20;99.90;;;;;;4979199;28;20034;-86
2021/07/07 11:22:41;;;;;;;2.17;0.70;;;21.30;99.90;;;;;;4979110;28;20534;-85
2021/07/07 11:25:10;;;;;;;5.53;1.00;;;21.60;99.90;;;;;;4979162;28;20033;-85
2021/07/07 11:27:37;;;;;;;2.60;0.90;;;21.80;99.90;;;;;;4979128;28;20054;-85
2021/07/07 11:30:13;;;;;;;7.18;1.02;;;22.00;99.90;;;;;;4996435;28;20113;-86
2021/07/07 11:32:44;;;;;;;4.90;1.10;;;21.80;99.90;;;;;;4979859;28;20023;-85
2021/07/07 11:35:28;;;;;;;5.22;0.98;;;21.40;99.90;;;;;;4996428;28;20470;-86
2021/07/07 11:37:56;;;;;;;2.60;0.80;;;21.30;99.90;;;;;;4978992;28;20474;-86
2021/07/07 11:40:23;;;;;;;3.03;0.90;;;21.20;99.90;;;;;;4979214;28;20034;-85
2021/07/07 11:43:11;;;;;;;5.45;0.88;;;21.30;99.90;;;;;;4978855;28;20041;-86
2021/07/07 11:45:55;;;;;;;4.43;0.95;;;21.10;99.90;;;;;;4996272;28;20022;-85
2021/07/07 11:48:30;;;;;;;7.68;1.20;;;20.90;99.90;;;;;;4978804;28;20026;-85
2021/07/07 11:51:12;;;;;;;2.03;0.80;;;20.80;99.90;;;;;;4978721;28;20030;-86
2021/07/07 11:53:41;;;;;;;2.28;0.80;;;21.10;99.90;;;;;;4978676;28;20033;-85
2021/07/07 11:56:09;;;;;;;2.67;0.95;;;21.30;99.90;;;;;;4978606;28;20061;-85
2021/07/07 11:58:50;;;;;;;1.63;0.70;;;21.20;99.90;;;;;;4996059;28;20371;-86
2021/07/07 12:01:26;;;;;;;2.15;0.90;;;21.40;99.90;;;;;;4995191;28;20121;-86
2021/07/07 12:03:58;;;;;;;3.95;1.08;;;21.40;99.90;;;;;;4978396;28;20549;-86
2021/07/07 12:06:33;;;;;;;2.85;0.88;;;21.30;99.90;;;;;;4978456;28;20411;-86
2021/07/07 12:09:00;;;;;;;3.78;0.70;;;21.10;99.90;;;;;;4978370;28;20030;-85
2021/07/07 12:11:26;;;;;;;1.45;0.70;;;21.10;99.90;;;;;;4978232;28;20037;-86
2021/07/07 12:13:54;;;;;;;2.22;0.80;;;21.10;99.90;;;;;;4978575;28;20417;-85
2021/07/07 12:16:33;;;;;;;3.63;0.93;;;20.80;99.90;;;;;;4979526;28;20030;-85
2021/07/07 12:19:13;;;;;;;2.08;0.75;;;20.60;99.90;;;;;;4979814;28;20030;-85
2021/07/07 12:21:46;;;;;;;2.17;0.70;;;20.60;99.90;;;;;;4997049;28;20026;-85
2021/07/07 12:24:27;;;;;;;1.63;0.75;;;20.60;99.90;;;;;;4979674;28;20037;-85
2021/07/07 12:27:02;;;;;;;1.48;0.82;;;20.60;99.90;;;;;;4980746;28;20061;-86
2021/07/07 12:29:29;;;;;;;;;;;20.50;99.90;;;;;;4980137;28;20117;-85
2021/07/07 12:32:06;;;;;;;2.42;0.80;;;20.50;99.90;;;;;;4979562;28;20353;-86
2021/07/07 12:34:35;;;;;;;2.03;0.90;;;20.70;99.90;;;;;;4997289;28;20026;-85
2021/07/07 12:37:02;;;;;;;2.53;0.73;;;21.20;99.90;;;;;;4997042;28;20022;-86
2021/07/07 12:39:31;;;;;;;1.33;0.80;;;21.80;99.90;;;;;;4997445;28;20021;-85
2021/07/07 12:42:08;;;;;;;4.97;0.80;;;22.90;99.90;;;;;;4979451;28;20030;-86
2021/07/07 12:44:37;;;;;;;2.00;0.85;;;23.80;99.90;;;;;;4996835;28;20110;-86
2021/07/07 12:47:12;;;;;;;4.28;0.75;;;24.20;99.90;;;;;;4997282;28;20026;-86
2021/07/07 12:49:40;;;;;;;3.13;0.98;;;24.20;99.90;;;;;;4979351;28;20030;-86
2021/07/07 12:52:36;;;;;;;1.23;0.70;;;23.60;99.90;;;;;;4996887;28;20018;-85
2021/07/07 12:55:15;;;;;;;4.72;0.82;;;23.30;99.90;;;;;;4977434;28;20018;-86
2021/07/07 12:57:44;;;;;;;2.67;0.60;;;23.50;99.90;;;;;;4996771;28;20017;-86